Sequim, Washington
Current Conditions -  °F | °C
As of 4:53 PM on Friday 28 Nov 2014 (Local Time) from KCLM Reporting Station
Overcast Overcast  
Wind Chill: 35°   Ceiling: 5500
Heat Index: 42°   Visibility: 10mi
Dew Point: 32°   Wind: 13mph
Humidity: 67%   Direction: 300°WNW
Pressure: 29.47"   Gusts: NA
Location:  48.08°N, 123.1°W
Report Text: KCLM 290053Z AUTO 30011KT 10SM OVC055 06/00 A2947 RMK AO2 SLP979 T00560000 $
Loading
Personal Weather Stations






























Interactive Weather Map New forecast layout! Learn more

10-Day Weather Forecast

Advertisements
Track Severe Weather on mobile